Time;durP1;ratioP1;P1;durP2;ratioP2;P2;SDS_P1;SDS_P2;PMS_P1;PMS_P2;Temp;Humidity;BMP_temperature;BMP_pressure;BME280_temperature;BME280_humidity;BME280_pressure;Samples;Min_cycle;Max_cycle;Signal;HPM_P1;HPM_P2
2023/07/31 00:02:06;;;;;;;204.63;55.63;;;;;;;;;;5052786;28;20422;-51
2023/07/31 00:04:33;;;;;;;204.80;55.57;;;;;;;;;;5052803;28;20428;-51
2023/07/31 00:06:59;;;;;;;204.25;55.35;;;;;;;;;;5051374;28;20418;-52
2023/07/31 00:09:24;;;;;;;207.73;57.27;;;;;;;;;;5052615;28;20579;-52
2023/07/31 00:11:50;;;;;;;204.82;55.00;;;;;;;;;;5051022;28;20407;-51
2023/07/31 00:14:16;;;;;;;205.23;56.03;;;;;;;;;;5052420;28;20195;-52
2023/07/31 00:16:42;;;;;;;205.80;55.90;;;;;;;;;;5052659;28;20890;-52
2023/07/31 00:19:09;;;;;;;206.00;56.20;;;;;;;;;;5052505;28;20399;-49
2023/07/31 00:21:35;;;;;;;204.25;55.95;;;;;;;;;;5052492;28;20445;-51
2023/07/31 00:24:01;;;;;;;205.60;55.72;;;;;;;;;;5052398;28;20229;-50
2023/07/31 00:26:27;;;;;;;204.63;56.07;;;;;;;;;;5050738;28;20219;-51
2023/07/31 00:28:52;;;;;;;207.07;56.97;;;;;;;;;;5049271;28;20415;-52
2023/07/31 00:31:18;;;;;;;205.93;56.50;;;;;;;;;;5051934;28;20428;-52
2023/07/31 00:33:44;;;;;;;204.80;56.67;;;;;;;;;;5052163;28;20465;-51
2023/07/31 00:36:10;;;;;;;206.17;56.87;;;;;;;;;;5052155;28;20399;-50
2023/07/31 00:38:36;;;;;;;204.50;55.63;;;;;;;;;;5052128;28;20409;-51
2023/07/31 00:41:02;;;;;;;206.27;56.10;;;;;;;;;;5050280;28;20194;-50
2023/07/31 00:43:28;;;;;;;205.20;55.63;;;;;;;;;;5051947;28;20447;-53
2023/07/31 00:45:54;;;;;;;204.97;57.13;;;;;;;;;;5052066;28;20410;-52
2023/07/31 00:48:20;;;;;;;204.95;56.30;;;;;;;;;;5045372;28;20454;-52
2023/07/31 00:50:46;;;;;;;204.83;55.93;;;;;;;;;;5049712;28;20628;-53
2023/07/31 00:53:13;;;;;;;206.88;57.72;;;;;;;;;;5050460;28;20537;-51
2023/07/31 00:55:39;;;;;;;205.52;57.45;;;;;;;;;;5044016;28;20178;-52
2023/07/31 00:58:05;;;;;;;204.52;55.67;;;;;;;;;;5051958;28;20179;-52
2023/07/31 01:00:31;;;;;;;204.80;56.47;;;;;;;;;;5051775;28;20560;-48
2023/07/31 01:02:57;;;;;;;206.43;56.40;;;;;;;;;;5051426;28;20773;-52
2023/07/31 01:05:33;;;;;;;205.20;56.75;;;;;;;;;;5050924;28;20419;-52
2023/07/31 01:08:10;;;;;;;205.48;55.75;;;;;;;;;;5050299;28;20173;-51
2023/07/31 01:10:42;;;;;;;204.93;56.03;;;;;;;;;;5051570;28;20228;-52
2023/07/31 01:13:08;;;;;;;205.70;56.40;;;;;;;;;;5051520;28;20285;-51
2023/07/31 01:15:34;;;;;;;205.90;57.05;;;;;;;;;;5051571;28;20308;-51
2023/07/31 01:18:00;;;;;;;204.00;55.33;;;;;;;;;;5051658;28;20196;-51
2023/07/31 01:20:27;;;;;;;204.10;54.97;;;;;;;;;;5044865;28;20449;-51
2023/07/31 01:23:12;;;;;;;205.55;56.00;;;;;;;;;;5043298;28;20401;-52
2023/07/31 01:25:55;;;;;;;203.30;54.45;;;;;;;;;;5049859;28;20490;-52
2023/07/31 01:28:24;;;;;;;206.95;59.90;;;;;;;;;;5048047;28;20627;-52
2023/07/31 01:30:50;;;;;;;202.95;57.50;;;;;;;;;;5050477;28;20673;-52
2023/07/31 01:33:17;;;;;;;198.13;54.78;;;;;;;;;;5050499;28;20286;-51
2023/07/31 01:35:44;;;;;;;197.30;54.70;;;;;;;;;;5051413;28;20186;-50
2023/07/31 01:38:10;;;;;;;198.85;55.50;;;;;;;;;;5050281;28;20218;-52
2023/07/31 01:40:36;;;;;;;199.65;55.92;;;;;;;;;;5050681;28;20200;-49
2023/07/31 01:43:02;;;;;;;198.13;55.37;;;;;;;;;;5051327;28;20185;-52
2023/07/31 01:45:28;;;;;;;198.00;56.30;;;;;;;;;;5051122;28;20421;-52
2023/07/31 01:47:54;;;;;;;196.17;54.60;;;;;;;;;;5051616;28;20469;-51
2023/07/31 01:50:20;;;;;;;198.27;56.23;;;;;;;;;;5050957;28;20851;-50
2023/07/31 01:52:46;;;;;;;198.17;55.87;;;;;;;;;;5049884;28;20437;-50
2023/07/31 01:55:12;;;;;;;196.47;55.17;;;;;;;;;;5051200;28;20437;-51
2023/07/31 01:57:38;;;;;;;196.23;54.40;;;;;;;;;;5051119;28;20415;-53
2023/07/31 02:00:05;;;;;;;196.37;54.87;;;;;;;;;;5046420;28;20189;-51
2023/07/31 02:02:31;;;;;;;196.88;55.67;;;;;;;;;;5054891;28;20413;-51
2023/07/31 02:04:57;;;;;;;196.00;56.20;;;;;;;;;;5055148;28;20230;-52
2023/07/31 02:07:23;;;;;;;197.60;56.37;;;;;;;;;;5053532;28;20509;-52
2023/07/31 02:09:49;;;;;;;199.93;59.17;;;;;;;;;;5054632;28;20443;-52
2023/07/31 02:12:15;;;;;;;195.65;55.10;;;;;;;;;;5054822;28;20415;-52
2023/07/31 02:14:41;;;;;;;195.97;55.50;;;;;;;;;;5054964;28;20195;-52
2023/07/31 02:17:07;;;;;;;196.55;55.85;;;;;;;;;;5055490;28;20405;-52
2023/07/31 02:19:33;;;;;;;195.97;55.70;;;;;;;;;;5054683;28;20197;-52
2023/07/31 02:21:59;;;;;;;194.10;54.27;;;;;;;;;;5053208;28;20942;-52
2023/07/31 02:24:25;;;;;;;195.27;54.87;;;;;;;;;;5054554;28;20788;-50
2023/07/31 02:26:51;;;;;;;193.93;53.97;;;;;;;;;;5054718;28;20422;-50
2023/07/31 02:29:17;;;;;;;195.27;54.73;;;;;;;;;;5048205;28;20424;-52
2023/07/31 02:31:43;;;;;;;203.13;61.67;;;;;;;;;;5050982;28;20421;-52
2023/07/31 02:34:09;;;;;;;193.70;54.70;;;;;;;;;;5050346;28;20494;-53
2023/07/31 02:36:35;;;;;;;193.97;53.30;;;;;;;;;;5054392;28;20456;-52
2023/07/31 02:39:01;;;;;;;197.50;55.17;;;;;;;;;;5051279;28;20410;-52
2023/07/31 02:41:27;;;;;;;198.57;56.40;;;;;;;;;;5049265;28;20860;-52
2023/07/31 02:43:53;;;;;;;197.57;56.00;;;;;;;;;;5054523;28;20420;-49
2023/07/31 02:46:19;;;;;;;195.90;54.20;;;;;;;;;;5054198;28;20831;-50
2023/07/31 02:48:45;;;;;;;197.88;55.53;;;;;;;;;;5046867;28;20415;-51
2023/07/31 02:51:11;;;;;;;196.50;54.47;;;;;;;;;;5051205;28;20223;-50
2023/07/31 02:53:37;;;;;;;197.50;55.40;;;;;;;;;;5053788;28;20818;-52
2023/07/31 02:56:03;;;;;;;195.40;54.13;;;;;;;;;;5054080;28;20867;-52
2023/07/31 02:58:29;;;;;;;197.90;56.47;;;;;;;;;;5053984;28;20546;-52
2023/07/31 03:00:55;;;;;;;194.97;53.97;;;;;;;;;;5053727;28;20193;-52
2023/07/31 03:03:21;;;;;;;194.95;54.30;;;;;;;;;;5052639;28;20413;-52
2023/07/31 03:05:47;;;;;;;195.37;54.50;;;;;;;;;;5053964;28;20672;-52
2023/07/31 03:08:13;;;;;;;195.07;54.27;;;;;;;;;;5053789;28;20410;-50
2023/07/31 03:10:39;;;;;;;196.70;54.90;;;;;;;;;;5053471;28;20437;-50
2023/07/31 03:13:05;;;;;;;194.77;53.27;;;;;;;;;;5052802;28;20503;-52
2023/07/31 03:15:31;;;;;;;197.63;55.83;;;;;;;;;;5053623;28;20899;-52
2023/07/31 03:17:57;;;;;;;197.03;54.97;;;;;;;;;;5052701;28;20482;-52
2023/07/31 03:20:23;;;;;;;198.88;56.33;;;;;;;;;;5053245;28;20439;-51
2023/07/31 03:22:49;;;;;;;196.90;55.20;;;;;;;;;;5053458;28;20553;-50
2023/07/31 03:25:15;;;;;;;196.10;54.50;;;;;;;;;;5053326;28;20464;-50
2023/07/31 03:27:41;;;;;;;194.55;53.78;;;;;;;;;;5050345;28;20412;-51
2023/07/31 03:30:07;;;;;;;198.20;55.25;;;;;;;;;;5048721;28;20608;-49
2023/07/31 03:32:33;;;;;;;196.68;54.92;;;;;;;;;;5052635;28;20175;-50
2023/07/31 03:34:59;;;;;;;197.10;55.47;;;;;;;;;;5053233;28;20206;-50
2023/07/31 03:37:25;;;;;;;196.67;54.10;;;;;;;;;;5053118;28;20425;-52
2023/07/31 03:39:51;;;;;;;200.20;58.20;;;;;;;;;;5052945;28;20430;-51
2023/07/31 03:42:17;;;;;;;197.13;55.27;;;;;;;;;;5053113;28;20412;-52
2023/07/31 03:44:43;;;;;;;195.10;53.43;;;;;;;;;;5052015;28;20472;-52
2023/07/31 03:47:09;;;;;;;196.17;54.90;;;;;;;;;;5053543;28;20763;-51
2023/07/31 03:49:34;;;;;;;196.37;53.90;;;;;;;;;;5052885;28;20496;-51
2023/07/31 03:52:00;;;;;;;198.87;55.80;;;;;;;;;;5052723;28;20406;-50
2023/07/31 03:54:26;;;;;;;197.47;54.43;;;;;;;;;;5052724;28;20575;-52
2023/07/31 03:56:52;;;;;;;195.93;54.80;;;;;;;;;;5053095;28;20498;-52
2023/07/31 03:59:18;;;;;;;198.43;55.97;;;;;;;;;;5051844;28;20405;-51
2023/07/31 04:01:44;;;;;;;196.97;55.03;;;;;;;;;;5052635;28;20408;-52
2023/07/31 04:04:10;;;;;;;197.50;55.20;;;;;;;;;;5052829;28;20414;-52
2023/07/31 04:06:36;;;;;;;197.87;55.57;;;;;;;;;;5052506;28;20786;-52
2023/07/31 04:09:03;;;;;;;197.43;54.97;;;;;;;;;;5052760;28;20509;-50
2023/07/31 04:11:29;;;;;;;196.27;54.38;;;;;;;;;;5052369;28;20421;-52
2023/07/31 04:13:55;;;;;;;195.60;55.90;;;;;;;;;;5051603;28;20575;-51
2023/07/31 04:16:21;;;;;;;196.70;54.97;;;;;;;;;;5052529;28;20501;-52
2023/07/31 04:18:47;;;;;;;196.37;54.70;;;;;;;;;;5052485;28;20410;-50
2023/07/31 04:21:13;;;;;;;199.47;56.93;;;;;;;;;;5052015;28;20431;-53
2023/07/31 04:23:38;;;;;;;200.40;58.87;;;;;;;;;;5052305;28;20484;-52
2023/07/31 04:26:04;;;;;;;197.07;54.77;;;;;;;;;;5052422;28;20398;-52
2023/07/31 04:28:31;;;;;;;196.63;54.77;;;;;;;;;;5051364;28;20940;-52
2023/07/31 04:30:57;;;;;;;195.93;55.10;;;;;;;;;;5049507;28;20445;-52
2023/07/31 04:33:23;;;;;;;197.03;55.67;;;;;;;;;;5051662;28;20199;-52
2023/07/31 04:35:53;;;;;;;198.15;56.60;;;;;;;;;;5052111;28;20564;-51
2023/07/31 04:38:22;;;;;;;199.57;57.10;;;;;;;;;;5052253;28;20174;-52
2023/07/31 04:40:48;;;;;;;196.82;54.72;;;;;;;;;;5050941;28;20200;-52
2023/07/31 04:43:14;;;;;;;198.95;55.63;;;;;;;;;;5052051;28;20173;-52
2023/07/31 04:45:43;;;;;;;197.57;55.47;;;;;;;;;;5052099;28;20597;-52
2023/07/31 04:48:08;;;;;;;197.98;55.75;;;;;;;;;;5047912;28;20402;-52
2023/07/31 04:50:34;;;;;;;198.77;56.17;;;;;;;;;;5051581;28;20635;-52
2023/07/31 04:53:00;;;;;;;196.43;55.57;;;;;;;;;;5044534;28;20778;-51
2023/07/31 04:55:26;;;;;;;197.10;55.93;;;;;;;;;;5051341;28;20479;-51
2023/07/31 04:57:53;;;;;;;198.20;55.80;;;;;;;;;;5051833;28;20418;-51
2023/07/31 05:00:19;;;;;;;197.55;55.50;;;;;;;;;;5051462;28;20426;-51
2023/07/31 05:02:44;;;;;;;196.97;56.23;;;;;;;;;;5051771;28;20259;-51
2023/07/31 05:05:10;;;;;;;194.13;54.27;;;;;;;;;;5051681;28;20411;-52
2023/07/31 05:07:36;;;;;;;200.97;57.80;;;;;;;;;;5051965;28;20415;-52
2023/07/31 05:10:02;;;;;;;195.43;54.55;;;;;;;;;;5050733;28;20935;-51
2023/07/31 05:12:28;;;;;;;197.32;55.22;;;;;;;;;;5051631;28;20209;-52
2023/07/31 05:14:54;;;;;;;198.07;55.83;;;;;;;;;;5051527;28;20267;-52
2023/07/31 05:17:20;;;;;;;196.23;55.40;;;;;;;;;;5051691;28;20412;-52
2023/07/31 05:19:46;;;;;;;203.50;61.20;;;;;;;;;;5051239;28;20435;-52
2023/07/31 05:22:12;;;;;;;199.57;58.13;;;;;;;;;;5051119;28;20424;-51
2023/07/31 05:24:38;;;;;;;194.07;53.50;;;;;;;;;;5051503;28;20890;-52
2023/07/31 05:27:04;;;;;;;195.77;55.13;;;;;;;;;;5051619;28;21048;-52
2023/07/31 05:29:30;;;;;;;195.68;55.30;;;;;;;;;;5051356;28;20521;-52
2023/07/31 05:31:56;;;;;;;196.77;55.53;;;;;;;;;;5051193;28;20262;-51
2023/07/31 05:34:22;;;;;;;197.17;55.93;;;;;;;;;;5051493;28;20459;-52
2023/07/31 05:36:48;;;;;;;198.70;58.43;;;;;;;;;;5054598;28;20527;-52
2023/07/31 05:39:14;;;;;;;197.80;56.37;;;;;;;;;;5055917;28;20404;-52
2023/07/31 05:41:40;;;;;;;196.60;55.60;;;;;;;;;;5055433;28;20443;-49
2023/07/31 05:44:06;;;;;;;195.47;54.80;;;;;;;;;;5055454;28;20419;-50
2023/07/31 05:46:32;;;;;;;194.47;54.40;;;;;;;;;;5055312;28;20951;-53
2023/07/31 05:49:00;;;;;;;196.65;55.25;;;;;;;;;;5055398;28;20412;-52
2023/07/31 05:51:26;;;;;;;198.18;57.03;;;;;;;;;;5054389;28;20691;-52
2023/07/31 05:53:52;;;;;;;195.57;55.50;;;;;;;;;;5055088;28;20248;-52
2023/07/31 05:56:18;;;;;;;197.07;55.60;;;;;;;;;;5055298;28;20495;-52
2023/07/31 05:58:44;;;;;;;197.43;57.57;;;;;;;;;;5055273;28;20416;-52
2023/07/31 06:01:10;;;;;;;198.10;56.47;;;;;;;;;;5054780;28;20433;-52
2023/07/31 06:03:36;;;;;;;198.60;57.97;;;;;;;;;;5055003;28;20447;-49
2023/07/31 06:06:02;;;;;;;194.30;54.17;;;;;;;;;;5054597;28;20781;-52
2023/07/31 06:08:28;;;;;;;198.27;56.07;;;;;;;;;;5054995;28;20551;-52
2023/07/31 06:10:53;;;;;;;195.40;54.90;;;;;;;;;;5054730;28;20436;-51
2023/07/31 06:13:19;;;;;;;197.07;56.07;;;;;;;;;;5054987;28;20467;-52
2023/07/31 06:15:45;;;;;;;198.00;58.07;;;;;;;;;;5054751;28;20423;-52
2023/07/31 06:18:12;;;;;;;197.87;56.83;;;;;;;;;;5054913;28;20411;-51
2023/07/31 06:20:40;;;;;;;197.40;56.10;;;;;;;;;;5054326;28;20423;-51
2023/07/31 06:23:06;;;;;;;197.07;56.10;;;;;;;;;;5054756;28;20174;-52
2023/07/31 06:25:32;;;;;;;197.37;56.27;;;;;;;;;;5054686;28;20187;-50
2023/07/31 06:27:58;;;;;;;196.40;54.80;;;;;;;;;;5054676;28;20490;-49
2023/07/31 06:30:24;;;;;;;197.67;56.20;;;;;;;;;;5054216;28;20437;-49
2023/07/31 06:32:50;;;;;;;196.57;55.87;;;;;;;;;;5054223;28;20502;-53
2023/07/31 06:35:16;;;;;;;198.97;57.23;;;;;;;;;;5054392;28;20464;-52
2023/07/31 06:37:44;;;;;;;196.07;55.70;;;;;;;;;;5054534;28;20404;-53
2023/07/31 06:40:10;;;;;;;195.45;55.67;;;;;;;;;;5050629;28;20430;-51
2023/07/31 06:42:36;;;;;;;199.73;58.90;;;;;;;;;;5054309;28;20664;-51
2023/07/31 06:45:02;;;;;;;200.20;57.17;;;;;;;;;;5054165;28;20184;-51
2023/07/31 06:47:28;;;;;;;199.05;56.72;;;;;;;;;;5053858;28;20185;-52
2023/07/31 06:49:54;;;;;;;200.77;58.63;;;;;;;;;;5053958;28;20225;-50
2023/07/31 06:52:20;;;;;;;198.00;56.20;;;;;;;;;;5054134;28;20496;-51
2023/07/31 06:55:00;;;;;;;197.97;56.23;;;;;;;;;;5054050;28;20455;-49
2023/07/31 06:57:27;;;;;;;197.35;56.25;;;;;;;;;;5053322;28;20879;-52
2023/07/31 06:59:53;;;;;;;200.57;58.40;;;;;;;;;;5047672;28;20264;-53
2023/07/31 07:02:19;;;;;;;202.43;60.33;;;;;;;;;;5051688;28;20950;-49
2023/07/31 07:04:45;;;;;;;196.20;56.37;;;;;;;;;;5050004;28;20913;-50
2023/07/31 07:07:11;;;;;;;194.17;54.77;;;;;;;;;;5053901;28;20924;-52
2023/07/31 07:09:37;;;;;;;197.37;57.07;;;;;;;;;;5050950;28;21012;-46
2023/07/31 07:12:03;;;;;;;196.53;55.40;;;;;;;;;;5049361;28;20421;-51
2023/07/31 07:14:29;;;;;;;195.52;55.72;;;;;;;;;;5053741;28;20498;-52
2023/07/31 07:16:55;;;;;;;195.77;55.60;;;;;;;;;;5053786;28;20177;-51
2023/07/31 07:19:21;;;;;;;198.03;56.27;;;;;;;;;;5052704;28;20409;-52
2023/07/31 07:21:47;;;;;;;197.48;56.63;;;;;;;;;;5053406;28;20466;-52
2023/07/31 07:24:13;;;;;;;195.27;55.30;;;;;;;;;;5051132;28;20650;-49
2023/07/31 07:26:39;;;;;;;197.60;56.17;;;;;;;;;;5053430;28;20943;-52
2023/07/31 07:29:07;;;;;;;196.77;56.30;;;;;;;;;;5053338;28;20416;-51
2023/07/31 07:31:33;;;;;;;196.65;57.15;;;;;;;;;;5053197;28;20425;-50
2023/07/31 07:34:00;;;;;;;196.25;55.78;;;;;;;;;;5052523;28;20220;-52
2023/07/31 07:36:28;;;;;;;196.52;55.55;;;;;;;;;;5053195;28;20175;-52
2023/07/31 07:38:54;;;;;;;197.23;56.72;;;;;;;;;;5053314;28;20166;-52
2023/07/31 07:41:19;;;;;;;196.43;56.27;;;;;;;;;;5052818;28;20667;-52
2023/07/31 07:43:45;;;;;;;195.70;55.30;;;;;;;;;;5053386;28;20411;-52
2023/07/31 07:46:12;;;;;;;197.35;56.47;;;;;;;;;;5053220;28;20407;-52
2023/07/31 07:48:38;;;;;;;195.57;55.17;;;;;;;;;;5052636;28;20181;-52
2023/07/31 07:51:03;;;;;;;196.67;55.70;;;;;;;;;;5052775;28;21014;-52
2023/07/31 07:53:29;;;;;;;195.50;55.40;;;;;;;;;;5052878;28;20463;-50
2023/07/31 07:55:55;;;;;;;197.03;56.07;;;;;;;;;;5052862;28;20437;-49
2023/07/31 07:58:21;;;;;;;195.13;54.30;;;;;;;;;;5052258;28;20422;-51
2023/07/31 08:00:49;;;;;;;195.30;55.15;;;;;;;;;;5045597;28;20427;-51
2023/07/31 08:03:16;;;;;;;196.32;57.10;;;;;;;;;;5052232;28;20171;-52
2023/07/31 08:05:42;;;;;;;195.23;55.35;;;;;;;;;;5052702;28;20181;-51
2023/07/31 08:08:08;;;;;;;194.20;54.27;;;;;;;;;;5052735;28;20272;-52
2023/07/31 08:10:34;;;;;;;197.07;56.07;;;;;;;;;;5052350;28;20507;-51
2023/07/31 08:13:00;;;;;;;197.17;54.77;;;;;;;;;;5052618;28;20464;-53
2023/07/31 08:15:26;;;;;;;196.80;55.87;;;;;;;;;;5051978;28;20449;-52
2023/07/31 08:17:52;;;;;;;202.27;58.70;;;;;;;;;;5051865;28;20429;-52
2023/07/31 08:20:18;;;;;;;197.67;54.90;;;;;;;;;;5051674;28;20463;-52
2023/07/31 08:22:44;;;;;;;200.90;57.33;;;;;;;;;;5051804;28;20410;-53
2023/07/31 08:25:10;;;;;;;197.07;54.90;;;;;;;;;;5052494;28;20204;-51
2023/07/31 08:27:36;;;;;;;197.47;55.10;;;;;;;;;;5051705;28;20417;-48
2023/07/31 08:30:02;;;;;;;197.73;55.40;;;;;;;;;;5051124;28;20433;-47
2023/07/31 08:32:28;;;;;;;196.47;55.57;;;;;;;;;;5047066;28;20465;-48
2023/07/31 08:34:54;;;;;;;199.87;57.33;;;;;;;;;;5051527;28;20559;-48
2023/07/31 08:37:20;;;;;;;198.40;56.43;;;;;;;;;;5051560;28;20422;-49
2023/07/31 08:39:46;;;;;;;200.70;58.53;;;;;;;;;;5046151;28;20427;-48
2023/07/31 08:42:12;;;;;;;202.77;57.83;;;;;;;;;;5049339;28;20428;-50
2023/07/31 08:44:39;;;;;;;202.32;57.22;;;;;;;;;;5042021;28;20263;-50
2023/07/31 08:47:05;;;;;;;204.02;55.85;;;;;;;;;;5050714;28;20647;-48
2023/07/31 08:49:31;;;;;;;196.73;54.83;;;;;;;;;;5051458;28;20226;-48
2023/07/31 08:51:57;;;;;;;198.23;56.40;;;;;;;;;;5049680;28;20475;-48
2023/07/31 08:54:23;;;;;;;197.77;56.03;;;;;;;;;;5051427;28;20201;-48
2023/07/31 08:56:50;;;;;;;196.70;55.70;;;;;;;;;;5051676;28;20203;-48
2023/07/31 08:59:17;;;;;;;197.40;55.72;;;;;;;;;;5051733;28;20417;-48
2023/07/31 09:01:44;;;;;;;194.00;55.75;;;;;;;;;;5051432;28;20177;-50
2023/07/31 09:04:11;;;;;;;197.30;55.55;;;;;;;;;;5051681;28;20180;-49
2023/07/31 09:06:37;;;;;;;196.18;55.20;;;;;;;;;;5051278;28;20200;-48
2023/07/31 09:09:03;;;;;;;194.32;54.65;;;;;;;;;;5051740;28;20201;-48
2023/07/31 09:11:30;;;;;;;196.73;56.67;;;;;;;;;;5050534;28;20668;-47
2023/07/31 09:13:58;;;;;;;195.50;55.50;;;;;;;;;;5048094;28;20471;-48
2023/07/31 09:16:30;;;;;;;198.20;57.45;;;;;;;;;;5051553;28;20546;-48
2023/07/31 09:18:57;;;;;;;197.50;57.00;;;;;;;;;;5051591;28;20167;-48
2023/07/31 09:21:23;;;;;;;196.75;57.05;;;;;;;;;;5050916;28;20263;-48
2023/07/31 09:23:54;;;;;;;195.73;55.88;;;;;;;;;;5051513;28;20515;-49
2023/07/31 09:26:30;;;;;;;195.88;56.75;;;;;;;;;;5051518;28;20175;-49
2023/07/31 09:28:56;;;;;;;196.02;55.42;;;;;;;;;;5051626;28;20177;-50
2023/07/31 09:31:41;;;;;;;195.30;55.20;;;;;;;;;;5051434;28;20566;-50
2023/07/31 09:34:08;;;;;;;194.82;55.17;;;;;;;;;;5047108;28;20204;-48
2023/07/31 09:36:40;;;;;;;197.40;57.20;;;;;;;;;;5051137;28;20582;-49
2023/07/31 09:39:06;;;;;;;194.65;54.58;;;;;;;;;;5049732;28;20167;-48
2023/07/31 09:41:32;;;;;;;198.17;56.70;;;;;;;;;;5049941;28;20589;-48
2023/07/31 09:43:58;;;;;;;197.93;56.20;;;;;;;;;;5051300;28;20921;-50
2023/07/31 09:46:27;;;;;;;200.70;59.45;;;;;;;;;;5051204;28;20213;-49
2023/07/31 09:48:53;;;;;;;196.55;55.08;;;;;;;;;;5051385;28;20187;-48
2023/07/31 09:51:27;;;;;;;195.57;55.20;;;;;;;;;;5050978;28;20271;-48
2023/07/31 09:53:53;;;;;;;194.48;54.17;;;;;;;;;;5051260;28;20817;-48
2023/07/31 09:56:22;;;;;;;194.10;54.73;;;;;;;;;;5051608;28;20162;-48
2023/07/31 09:58:49;;;;;;;196.15;56.13;;;;;;;;;;5051104;28;20778;-48
2023/07/31 10:01:15;;;;;;;197.73;56.17;;;;;;;;;;5050786;28;20190;-51
2023/07/31 10:03:41;;;;;;;197.45;56.55;;;;;;;;;;5051224;28;20545;-51
2023/07/31 10:06:08;;;;;;;199.77;57.40;;;;;;;;;;5051234;28;20183;-52
2023/07/31 10:08:36;;;;;;;196.52;55.25;;;;;;;;;;5051170;28;20657;-48
2023/07/31 10:11:02;;;;;;;197.27;57.33;;;;;;;;;;5050900;28;20197;-51
2023/07/31 10:13:29;;;;;;;198.20;57.85;;;;;;;;;;5051010;28;20242;-49
2023/07/31 10:15:58;;;;;;;196.38;55.83;;;;;;;;;;5051154;28;20167;-49
2023/07/31 10:18:24;;;;;;;196.02;55.55;;;;;;;;;;5051144;28;20220;-48
2023/07/31 10:20:49;;;;;;;197.90;57.10;;;;;;;;;;5035876;28;20257;-48
2023/07/31 10:23:16;;;;;;;199.33;58.20;;;;;;;;;;5046469;28;20408;-48
2023/07/31 10:25:43;;;;;;;198.00;56.30;;;;;;;;;;5054610;28;20448;-49
2023/07/31 10:28:10;;;;;;;206.40;63.75;;;;;;;;;;5053638;28;20177;-54
2023/07/31 10:30:38;;;;;;;200.60;57.97;;;;;;;;;;5048699;28;20702;-48
2023/07/31 10:33:04;;;;;;;207.60;62.83;;;;;;;;;;5047535;28;20170;-50
2023/07/31 10:35:30;;;;;;;198.80;56.90;;;;;;;;;;5047564;28;20223;-50
2023/07/31 10:37:56;;;;;;;200.40;58.40;;;;;;;;;;5042859;28;20259;-48
2023/07/31 10:40:27;;;;;;;205.83;61.17;;;;;;;;;;5045354;28;20460;-50
2023/07/31 10:42:57;;;;;;;205.15;61.20;;;;;;;;;;5046210;28;20947;-50
2023/07/31 10:45:26;;;;;;;198.73;57.63;;;;;;;;;;5038379;28;20237;-53
2023/07/31 10:48:00;;;;;;;197.80;57.45;;;;;;;;;;5051617;28;20231;-52
2023/07/31 10:50:26;;;;;;;198.23;57.10;;;;;;;;;;5050475;28;20302;-53
2023/07/31 10:52:53;;;;;;;199.15;58.05;;;;;;;;;;5054252;28;20291;-53
2023/07/31 10:55:26;;;;;;;197.07;56.28;;;;;;;;;;5052100;28;20564;-53
2023/07/31 10:57:53;;;;;;;196.38;55.78;;;;;;;;;;5047866;28;20727;-53
2023/07/31 11:00:20;;;;;;;196.77;56.05;;;;;;;;;;5043620;28;20208;-53
2023/07/31 11:02:57;;;;;;;197.45;55.75;;;;;;;;;;5052680;28;20282;-53
2023/07/31 11:05:41;;;;;;;198.02;56.92;;;;;;;;;;5053921;28;20656;-52
2023/07/31 11:08:16;;;;;;;200.55;58.38;;;;;;;;;;5051482;28;20196;-51
2023/07/31 11:10:43;;;;;;;197.93;57.53;;;;;;;;;;5043523;28;20545;-53
2023/07/31 11:13:09;;;;;;;196.05;55.40;;;;;;;;;;5052531;28;20190;-53
2023/07/31 11:15:35;;;;;;;198.27;56.27;;;;;;;;;;5049982;28;20180;-49
2023/07/31 11:18:03;;;;;;;198.40;56.50;;;;;;;;;;5051914;28;20409;-49
2023/07/31 11:20:30;;;;;;;199.18;58.65;;;;;;;;;;5051060;28;20192;-48
2023/07/31 11:22:58;;;;;;;196.70;56.00;;;;;;;;;;5048805;28;20635;-48
2023/07/31 11:25:24;;;;;;;200.10;57.83;;;;;;;;;;5052251;28;20658;-51
2023/07/31 11:27:53;;;;;;;195.77;56.07;;;;;;;;;;5044737;28;20193;-50
2023/07/31 11:30:20;;;;;;;199.02;57.38;;;;;;;;;;5046550;28;20444;-50
2023/07/31 11:32:46;;;;;;;200.23;58.03;;;;;;;;;;5051105;28;20203;-49
2023/07/31 11:35:13;;;;;;;196.18;55.60;;;;;;;;;;5047898;28;20203;-53
2023/07/31 11:37:40;;;;;;;196.55;56.15;;;;;;;;;;5051733;28;20734;-53
2023/07/31 11:40:06;;;;;;;197.10;56.58;;;;;;;;;;5048388;28;20561;-53
2023/07/31 11:42:32;;;;;;;196.25;56.28;;;;;;;;;;5045184;28;20186;-51
2023/07/31 11:44:58;;;;;;;203.50;61.10;;;;;;;;;;5049826;28;20180;-53
2023/07/31 11:47:26;;;;;;;201.37;58.77;;;;;;;;;;5045952;28;20433;-51
2023/07/31 11:49:52;;;;;;;204.38;61.75;;;;;;;;;;5046158;28;20452;-52
2023/07/31 11:52:20;;;;;;;201.27;58.50;;;;;;;;;;5051130;28;20474;-53
2023/07/31 11:54:46;;;;;;;202.10;59.70;;;;;;;;;;5051532;28;20460;-53
2023/07/31 11:57:12;;;;;;;199.73;58.90;;;;;;;;;;5050030;28;20167;-52
2023/07/31 11:59:38;;;;;;;200.15;59.33;;;;;;;;;;5051007;28;20205;-52
2023/07/31 12:02:04;;;;;;;197.73;56.42;;;;;;;;;;5053098;28;20261;-52
2023/07/31 12:04:31;;;;;;;197.48;56.63;;;;;;;;;;5052848;28;20186;-52
2023/07/31 12:06:57;;;;;;;197.15;57.13;;;;;;;;;;5053079;28;20206;-53
2023/07/31 12:09:23;;;;;;;198.50;56.67;;;;;;;;;;5052715;28;20221;-52
2023/07/31 12:11:49;;;;;;;195.30;54.50;;;;;;;;;;5052477;28;20472;-52
2023/07/31 12:14:25;;;;;;;196.97;55.80;;;;;;;;;;5052218;28;20198;-52
2023/07/31 12:16:55;;;;;;;198.30;57.67;;;;;;;;;;5052834;28;20397;-52
2023/07/31 12:19:21;;;;;;;199.00;58.35;;;;;;;;;;5052751;28;20595;-53
2023/07/31 12:21:47;;;;;;;196.57;56.87;;;;;;;;;;5052387;28;20271;-52
2023/07/31 12:24:13;;;;;;;194.33;54.43;;;;;;;;;;5052459;28;20421;-52
2023/07/31 12:26:39;;;;;;;198.50;59.07;;;;;;;;;;5039285;28;20459;-52
2023/07/31 12:29:08;;;;;;;194.68;56.38;;;;;;;;;;5042449;28;20418;-51
2023/07/31 12:31:34;;;;;;;196.23;56.30;;;;;;;;;;5052139;28;20207;-51
2023/07/31 12:34:02;;;;;;;196.43;56.42;;;;;;;;;;5052011;28;20245;-52
2023/07/31 12:36:30;;;;;;;197.07;58.97;;;;;;;;;;5050544;28;20164;-52
2023/07/31 12:38:58;;;;;;;196.50;56.67;;;;;;;;;;5046349;28;20537;-52
2023/07/31 12:41:24;;;;;;;198.00;59.47;;;;;;;;;;5050101;28;20188;-53
2023/07/31 12:43:50;;;;;;;196.47;56.50;;;;;;;;;;5052078;28;20266;-53
2023/07/31 12:46:17;;;;;;;194.37;55.83;;;;;;;;;;5051821;28;20830;-52
2023/07/31 12:48:43;;;;;;;198.35;59.38;;;;;;;;;;5051831;28;21031;-52
2023/07/31 12:51:09;;;;;;;196.20;56.83;;;;;;;;;;5050526;28;20308;-52
2023/07/31 12:53:35;;;;;;;195.40;57.25;;;;;;;;;;5051779;28;20463;-51
2023/07/31 12:56:01;;;;;;;194.68;55.88;;;;;;;;;;5051841;28;20184;-52
2023/07/31 12:58:27;;;;;;;194.32;56.58;;;;;;;;;;5051907;28;20167;-52
2023/07/31 13:00:53;;;;;;;196.60;57.43;;;;;;;;;;5051591;28;20202;-53
2023/07/31 13:03:19;;;;;;;193.60;55.00;;;;;;;;;;5051767;28;20410;-51
2023/07/31 13:05:45;;;;;;;195.00;56.20;;;;;;;;;;5051852;28;20949;-50
2023/07/31 13:08:11;;;;;;;195.20;57.77;;;;;;;;;;5051785;28;20507;-52
2023/07/31 13:10:37;;;;;;;194.68;56.85;;;;;;;;;;5051735;28;20436;-52
2023/07/31 13:13:03;;;;;;;194.07;55.87;;;;;;;;;;5051785;28;20181;-52
2023/07/31 13:15:29;;;;;;;196.63;59.60;;;;;;;;;;5051561;28;20515;-53
2023/07/31 13:17:55;;;;;;;195.43;58.03;;;;;;;;;;5051621;28;20474;-52
2023/07/31 13:20:21;;;;;;;196.23;57.50;;;;;;;;;;5051346;28;20227;-53
2023/07/31 13:22:47;;;;;;;193.67;55.60;;;;;;;;;;5051451;28;20410;-50
2023/07/31 13:25:13;;;;;;;195.73;57.50;;;;;;;;;;5051365;28;20425;-53
2023/07/31 13:27:39;;;;;;;195.30;56.08;;;;;;;;;;5051577;28;20413;-51
2023/07/31 13:30:05;;;;;;;195.17;56.70;;;;;;;;;;5051266;28;20255;-51
2023/07/31 13:32:32;;;;;;;195.35;56.13;;;;;;;;;;5049781;28;20489;-51
2023/07/31 13:34:58;;;;;;;195.30;56.17;;;;;;;;;;5031540;28;20196;-52
2023/07/31 13:37:25;;;;;;;193.10;54.67;;;;;;;;;;5050229;28;20694;-52
2023/07/31 13:39:51;;;;;;;196.32;57.92;;;;;;;;;;5051473;28;20436;-52
2023/07/31 13:42:16;;;;;;;195.67;57.23;;;;;;;;;;5051322;28;20172;-52
2023/07/31 13:44:43;;;;;;;194.57;56.57;;;;;;;;;;5051455;28;20553;-51
2023/07/31 13:47:09;;;;;;;195.13;55.50;;;;;;;;;;5051280;28;20463;-51
2023/07/31 13:49:35;;;;;;;194.93;56.08;;;;;;;;;;5050084;28;20199;-51
2023/07/31 13:52:01;;;;;;;195.00;56.05;;;;;;;;;;5050950;28;20164;-51
2023/07/31 13:54:27;;;;;;;195.33;57.40;;;;;;;;;;5051145;28;20200;-51
2023/07/31 13:56:54;;;;;;;194.77;56.27;;;;;;;;;;5052726;28;20921;-52
2023/07/31 13:59:20;;;;;;;198.40;60.22;;;;;;;;;;5055040;28;20449;-52
2023/07/31 14:01:46;;;;;;;195.43;56.63;;;;;;;;;;5047336;28;20168;-50